Time;durP1;ratioP1;P1;durP2;ratioP2;P2;SDS_P1;SDS_P2;PMS_P1;PMS_P2;Temp;Humidity;BMP_temperature;BMP_pressure;BME280_temperature;BME280_humidity;BME280_pressure;Samples;Min_cycle;Max_cycle;Signal;HPM_P1;HPM_P2
2022/12/19 00:01:07;;;;;;;;;;;0.90;93.80;;;;;;5083978;28;19919;-73
2022/12/19 00:03:33;;;;;;;;;;;0.90;93.90;;;;;;5093303;28;19958;-72
2022/12/19 00:06:02;;;;;;;;;;;0.90;94.00;;;;;;5093190;28;19916;-72
2022/12/19 00:08:28;;;;;;;;;;;0.90;93.90;;;;;;5094071;28;20276;-73
2022/12/19 00:10:55;;;;;;;;;;;0.90;94.00;;;;;;5092357;28;19916;-73
2022/12/19 00:13:20;;;;;;;;;;;0.90;94.10;;;;;;5093443;28;19920;-72
2022/12/19 00:15:46;;;;;;;;;;;0.90;94.10;;;;;;5093320;28;20615;-73
2022/12/19 00:18:11;;;;;;;;;;;0.90;94.20;;;;;;5074919;28;19912;-73
2022/12/19 00:20:37;;;;;;;;;;;0.90;94.20;;;;;;5093367;28;19919;-73
2022/12/19 00:23:02;;;;;;;;;;;0.90;94.20;;;;;;5093133;28;19916;-72
2022/12/19 00:25:28;;;;;;;;;;;0.90;94.20;;;;;;5076100;28;19924;-72
2022/12/19 00:27:53;;;;;;;;;;;1.00;94.30;;;;;;5084813;28;19965;-72
2022/12/19 00:30:19;;;;;;;;;;;0.90;94.30;;;;;;5092229;28;19918;-72
2022/12/19 00:32:44;;;;;;;;;;;0.90;94.20;;;;;;5092529;28;19931;-73
2022/12/19 00:35:10;;;;;;;;;;;1.00;94.30;;;;;;5092945;28;19951;-73
2022/12/19 00:37:35;;;;;;;;;;;1.00;94.20;;;;;;5092924;28;19914;-72
2022/12/19 00:40:01;;;;;;;;;;;1.00;94.30;;;;;;5074000;28;19912;-72
2022/12/19 00:42:27;;;;;;;;;;;1.00;94.40;;;;;;5089789;28;19916;-72
2022/12/19 00:44:52;;;;;;;;;;;1.00;94.40;;;;;;5090205;28;19912;-73
2022/12/19 00:47:18;;;;;;;;;;;1.00;94.40;;;;;;5089660;28;20010;-72
2022/12/19 00:49:43;;;;;;;;;;;1.00;94.40;;;;;;5089066;28;19912;-72
2022/12/19 00:52:09;;;;;;;;;;;1.00;94.60;;;;;;5089628;28;19919;-72
2022/12/19 00:54:34;;;;;;;;;;;1.00;94.50;;;;;;5089628;28;19912;-72
2022/12/19 00:57:00;;;;;;;;;;;1.00;94.50;;;;;;5084615;28;20379;-72
2022/12/19 00:59:25;;;;;;;;;;;1.00;94.50;;;;;;5069083;28;20016;-72
2022/12/19 01:01:51;;;;;;;;;;;1.00;94.40;;;;;;5086443;28;19918;-72
2022/12/19 01:04:16;;;;;;;;;;;1.00;94.60;;;;;;5071279;28;19919;-71
2022/12/19 01:06:42;;;;;;;;;;;1.00;94.60;;;;;;5088437;28;19916;-72
2022/12/19 01:09:09;;;;;;;;;;;1.00;94.60;;;;;;5089357;28;19919;-72
2022/12/19 01:14:19;;;;;;;;;;;1.00;94.50;;;;;;5090488;28;19965;-71
2022/12/19 01:16:44;;;;;;;;;;;1.10;94.60;;;;;;5071111;28;20042;-72
2022/12/19 01:19:10;;;;;;;;;;;1.10;94.70;;;;;;5088910;28;19912;-72
2022/12/19 01:21:35;;;;;;;;;;;1.10;94.50;;;;;;5088858;28;19965;-72
2022/12/19 01:24:02;;;;;;;;;;;1.10;94.60;;;;;;5088235;28;19923;-71
2022/12/19 01:26:28;;;;;;;;;;;1.10;94.60;;;;;;5098788;28;19985;-72
2022/12/19 01:28:53;;;;;;;;;;;1.10;94.70;;;;;;5086842;28;19912;-72
2022/12/19 01:31:19;;;;;;;;;;;1.10;94.70;;;;;;5088777;28;20498;-72
2022/12/19 01:33:44;;;;;;;;;;;1.10;94.70;;;;;;5071044;28;19919;-72
2022/12/19 01:36:10;;;;;;;;;;;1.10;94.70;;;;;;5088623;28;19939;-71
2022/12/19 01:38:35;;;;;;;;;;;1.10;94.80;;;;;;5089038;28;19954;-72
2022/12/19 01:41:01;;;;;;;;;;;1.10;94.70;;;;;;5097821;28;20511;-72
2022/12/19 01:43:30;;;;;;;;;;;1.10;94.60;;;;;;5088089;28;19916;-72
2022/12/19 01:45:57;;;;;;;;;;;1.20;94.80;;;;;;5088925;28;19916;-72
2022/12/19 01:48:29;;;;;;;;;;;1.20;94.80;;;;;;5088514;28;19955;-72
2022/12/19 01:50:56;;;;;;;;;;;1.20;94.90;;;;;;5088525;28;20516;-71
2022/12/19 01:53:24;;;;;;;;;;;1.20;94.90;;;;;;5088255;28;19919;-71
2022/12/19 01:55:49;;;;;;;;;;;1.20;94.90;;;;;;5071512;28;19919;-71
2022/12/19 01:58:15;;;;;;;;;;;1.20;94.90;;;;;;5101923;28;19968;-71
2022/12/19 02:00:42;;;;;;;;;;;1.20;94.90;;;;;;5100763;28;19908;-71
2022/12/19 02:03:10;;;;;;;;;;;1.20;95.00;;;;;;5087984;28;19925;-72
2022/12/19 02:05:36;;;;;;;;;;;1.20;95.00;;;;;;5088422;28;19919;-72
2022/12/19 02:08:02;;;;;;;;;;;1.20;95.10;;;;;;5088180;28;19919;-72
2022/12/19 02:10:28;;;;;;;;;;;1.20;95.00;;;;;;5087937;28;19916;-71
2022/12/19 02:12:53;;;;;;;;;;;1.20;94.90;;;;;;5089148;28;19987;-72
2022/12/19 02:15:19;;;;;;;;;;;1.20;95.00;;;;;;5087998;28;19919;-72
2022/12/19 02:18:03;;;;;;;;;;;1.30;95.20;;;;;;5087898;28;20547;-71
2022/12/19 02:20:28;;;;;;;;;;;1.30;95.20;;;;;;5087851;28;19997;-72
2022/12/19 02:22:54;;;;;;;;;;;1.20;95.20;;;;;;5087190;28;19912;-71
2022/12/19 02:25:22;;;;;;;;;;;1.30;95.30;;;;;;5087847;28;19920;-71
2022/12/19 02:28:06;;;;;;;;;;;1.20;95.30;;;;;;5079794;28;20542;-71
2022/12/19 02:30:31;;;;;;;;;;;1.30;95.40;;;;;;5086929;28;19912;-72
2022/12/19 02:33:03;;;;;;;;;;;1.30;95.40;;;;;;5075673;28;19935;-72
2022/12/19 02:35:41;;;;;;;;;;;1.30;95.50;;;;;;5066383;28;20369;-71
2022/12/19 02:38:25;;;;;;;;;;;1.30;95.60;;;;;;5066072;28;19935;-71
2022/12/19 02:40:56;;;;;;;;;;;1.30;95.70;;;;;;5066688;28;19916;-71
2022/12/19 02:43:22;;;;;;;;;;;1.30;95.60;;;;;;5070718;28;19919;-72
2022/12/19 02:45:49;;;;;;;;;;;1.30;95.60;;;;;;5096300;28;19916;-71
2022/12/19 02:48:15;;;;;;;;;;;1.40;95.70;;;;;;5105975;28;19916;-72
2022/12/19 02:50:42;;;;;;;;;;;1.30;95.70;;;;;;5107690;28;19907;-71
2022/12/19 02:53:09;;;;;;;;;;;1.40;95.70;;;;;;5108074;28;19972;-71
2022/12/19 02:55:49;;;;;;;;;;;1.40;95.90;;;;;;5107812;28;20467;-71
2022/12/19 02:58:15;;;;;;;;;;;1.40;95.80;;;;;;5090983;28;19996;-71
2022/12/19 03:00:53;;;;;;;;;;;1.40;95.90;;;;;;5086733;28;20016;-72
2022/12/19 03:03:54;;;;;;;;;;;1.40;95.90;;;;;;5086051;28;19923;-71
2022/12/19 03:06:31;;;;;;;;;;;1.40;95.80;;;;;;5003869;28;19921;-72
2022/12/19 03:08:57;;;;;;;;;;;1.50;96.20;;;;;;5058976;28;21239;-72
2022/12/19 03:11:24;;;;;;;;;;;1.50;96.20;;;;;;5066690;28;19915;-71
2022/12/19 03:13:53;;;;;;;;;;;1.50;96.20;;;;;;5081856;28;19920;-72
2022/12/19 03:16:19;;;;;;;;;;;1.50;96.30;;;;;;5087183;28;19908;-71
2022/12/19 03:18:44;;;;;;;;;;;1.50;96.30;;;;;;5088019;28;19939;-72
2022/12/19 03:21:10;;;;;;;;;;;1.50;96.30;;;;;;5086783;28;19934;-71
2022/12/19 03:23:36;;;;;;;;;;;1.50;96.30;;;;;;5087110;28;19916;-72
2022/12/19 03:26:05;;;;;;;;;;;1.60;96.30;;;;;;5086964;28;20731;-71
2022/12/19 03:28:38;;;;;;;;;;;1.60;96.30;;;;;;5079851;28;19916;-71
2022/12/19 03:31:04;;;;;;;;;;;1.60;96.30;;;;;;5086676;28;19908;-71
2022/12/19 03:33:30;;;;;;;;;;;1.60;96.50;;;;;;5086733;28;19918;-71
2022/12/19 03:35:58;;;;;;;;;;;1.60;96.80;;;;;;5088148;28;19916;-71
2022/12/19 03:38:24;;;;;;;;;;;1.70;96.50;;;;;;5086942;28;19939;-72
2022/12/19 03:40:50;;;;;;;;;;;1.70;96.50;;;;;;5086721;28;19951;-71
2022/12/19 03:43:16;;;;;;;;;;;1.70;96.50;;;;;;5071189;28;19908;-71
2022/12/19 03:45:44;;;;;;;;;;;1.70;96.50;;;;;;5087188;28;20003;-71
2022/12/19 03:48:12;;;;;;;;;;;1.70;96.40;;;;;;5087008;28;19912;-71
2022/12/19 03:50:44;;;;;;;;;;;1.70;96.50;;;;;;5087948;28;19962;-72
2022/12/19 03:53:09;;;;;;;;;;;1.70;96.50;;;;;;5087146;28;20359;-72
2022/12/19 03:55:38;;;;;;;;;;;1.80;96.60;;;;;;5086872;28;19912;-71
2022/12/19 03:58:06;;;;;;;;;;;1.80;96.60;;;;;;5053666;28;19908;-72
2022/12/19 04:00:34;;;;;;;;;;;1.80;96.70;;;;;;5072307;28;19912;-72
2022/12/19 04:03:00;;;;;;;;;;;1.80;96.60;;;;;;5086570;28;19957;-72
2022/12/19 04:05:26;;;;;;;;;;;1.80;96.60;;;;;;5068627;28;20332;-71
2022/12/19 04:07:54;;;;;;;;;;;1.80;96.60;;;;;;5087851;28;19970;-72
2022/12/19 04:10:21;;;;;;;;;;;1.80;96.70;;;;;;5086636;28;19920;-71
2022/12/19 04:12:51;;;;;;;;;;;1.80;97.10;;;;;;5086782;28;20031;-72
2022/12/19 04:15:19;;;;;;;;;;;1.80;96.70;;;;;;5086902;28;20010;-71
2022/12/19 04:17:53;;;;;;;;;;;1.80;96.80;;;;;;5090267;28;19912;-72
2022/12/19 04:20:20;;;;;;;;;;;1.90;96.90;;;;;;5090101;28;20460;-72
2022/12/19 04:22:51;;;;;;;;;;;1.90;96.90;;;;;;5090248;28;19908;-71
2022/12/19 04:25:20;;;;;;;;;;;1.90;96.90;;;;;;5091256;28;19955;-72
2022/12/19 04:27:50;;;;;;;;;;;1.90;97.00;;;;;;5064779;28;20258;-72
2022/12/19 04:30:16;;;;;;;;;;;1.90;97.00;;;;;;5085997;28;20099;-71
2022/12/19 04:32:42;;;;;;;;;;;1.90;97.10;;;;;;5085468;28;19919;-71
2022/12/19 04:35:08;;;;;;;;;;;1.90;97.10;;;;;;5082942;28;19921;-72
2022/12/19 04:37:33;;;;;;;;;;;2.00;97.20;;;;;;5076840;28;19970;-72
2022/12/19 04:39:59;;;;;;;;;;;2.00;97.20;;;;;;5065403;28;19912;-71
2022/12/19 04:42:25;;;;;;;;;;;2.00;97.50;;;;;;5101683;28;19912;-71
2022/12/19 04:44:50;;;;;;;;;;;2.00;97.50;;;;;;5082209;28;20357;-71
2022/12/19 04:47:16;;;;;;;;;;;2.10;97.50;;;;;;5089993;28;20639;-71
2022/12/19 04:49:41;;;;;;;;;;;2.10;97.40;;;;;;5089312;28;19919;-72
2022/12/19 04:52:07;;;;;;;;;;;2.10;97.50;;;;;;5089574;28;20000;-71
2022/12/19 04:54:32;;;;;;;;;;;2.10;97.80;;;;;;5089438;28;20461;-71
2022/12/19 04:56:58;;;;;;;;;;;2.10;97.50;;;;;;5081714;28;20296;-71
2022/12/19 04:59:23;;;;;;;;;;;2.10;97.50;;;;;;5089377;28;19916;-71
2022/12/19 05:01:49;;;;;;;;;;;2.10;97.50;;;;;;5071102;28;19912;-71
2022/12/19 05:04:14;;;;;;;;;;;2.20;97.70;;;;;;5089433;28;19912;-70
2022/12/19 05:06:40;;;;;;;;;;;2.20;97.70;;;;;;5101645;28;19919;-71
2022/12/19 05:09:05;;;;;;;;;;;2.20;97.90;;;;;;5109838;28;19912;-70
2022/12/19 05:11:31;;;;;;;;;;;2.20;97.90;;;;;;5109363;28;20000;-71
2022/12/19 05:13:57;;;;;;;;;;;2.20;97.90;;;;;;5101317;28;19920;-71
2022/12/19 05:16:24;;;;;;;;;;;2.20;97.80;;;;;;5088358;28;20301;-70
2022/12/19 05:18:52;;;;;;;;;;;2.30;97.90;;;;;;5089024;28;20002;-70
2022/12/19 05:21:17;;;;;;;;;;;2.30;98.00;;;;;;5105387;28;19922;-71
2022/12/19 05:23:42;;;;;;;;;;;2.30;98.10;;;;;;5090948;28;19911;-70
2022/12/19 05:26:09;;;;;;;;;;;2.30;98.10;;;;;;5108647;28;20299;-71
2022/12/19 05:28:35;;;;;;;;;;;2.30;98.20;;;;;;5088207;28;19916;-71
2022/12/19 05:31:01;;;;;;;;;;;2.30;98.20;;;;;;5088301;28;19912;-70
2022/12/19 05:33:27;;;;;;;;;;;2.30;98.10;;;;;;5088692;28;19999;-71
2022/12/19 05:35:52;;;;;;;;;;;2.30;98.10;;;;;;5090443;28;19999;-71
2022/12/19 05:38:18;;;;;;;;;;;2.40;98.20;;;;;;5109219;28;19911;-70
2022/12/19 05:40:43;;;;;;;;;;;2.40;98.20;;;;;;5108604;28;19922;-71
2022/12/19 05:43:09;;;;;;;;;;;2.40;98.30;;;;;;5088933;28;19912;-71
2022/12/19 05:45:34;;;;;;;;;;;2.40;98.30;;;;;;5088602;28;19923;-71
2022/12/19 05:48:00;;;;;;;;;;;2.40;98.30;;;;;;5088331;28;20357;-71
2022/12/19 05:50:25;;;;;;;;;;;2.40;98.30;;;;;;5088147;28;19911;-71
2022/12/19 05:52:51;;;;;;;;;;;2.40;98.30;;;;;;5070590;28;19916;-71
2022/12/19 05:55:16;;;;;;;;;;;2.40;98.20;;;;;;5088209;28;19943;-71
2022/12/19 05:57:42;;;;;;;;;;;2.50;98.30;;;;;;5076477;28;19912;-71
2022/12/19 06:00:08;;;;;;;;;;;2.50;98.30;;;;;;5067992;28;19917;-71
2022/12/19 06:02:33;;;;;;;;;;;2.50;98.30;;;;;;5068215;28;20261;-71
2022/12/19 06:04:59;;;;;;;;;;;2.50;98.30;;;;;;5068187;28;19917;-71
2022/12/19 06:07:24;;;;;;;;;;;2.50;98.40;;;;;;5067500;28;20391;-71
2022/12/19 06:09:50;;;;;;;;;;;2.50;98.30;;;;;;5080834;28;19912;-71
2022/12/19 06:12:15;;;;;;;;;;;2.60;98.60;;;;;;5088015;28;19978;-71
2022/12/19 06:14:41;;;;;;;;;;;2.60;98.50;;;;;;5069669;28;20018;-71
2022/12/19 06:17:06;;;;;;;;;;;2.60;98.50;;;;;;5088493;28;19919;-71
2022/12/19 06:19:32;;;;;;;;;;;2.60;98.40;;;;;;5087921;28;19912;-70
2022/12/19 06:21:57;;;;;;;;;;;2.60;98.50;;;;;;5088187;28;19995;-72
2022/12/19 06:24:23;;;;;;;;;;;2.70;98.50;;;;;;5087770;28;19919;-70
2022/12/19 06:26:48;;;;;;;;;;;2.60;98.50;;;;;;5084302;28;19925;-70
2022/12/19 06:29:15;;;;;;;;;;;2.60;98.50;;;;;;5084913;28;19923;-71
2022/12/19 06:31:40;;;;;;;;;;;2.70;98.60;;;;;;5087384;28;19908;-71
2022/12/19 06:34:05;;;;;;;;;;;2.70;98.70;;;;;;5087636;28;20462;-71
2022/12/19 06:36:31;;;;;;;;;;;2.70;98.60;;;;;;5087670;28;19923;-71
2022/12/19 06:38:57;;;;;;;;;;;2.70;98.70;;;;;;5086907;28;20470;-70
2022/12/19 06:44:08;;;;;;;;;;;2.80;98.70;;;;;;5077228;28;19951;-71
2022/12/19 06:46:33;;;;;;;;;;;2.80;98.70;;;;;;5069333;28;20121;-71
2022/12/19 06:48:59;;;;;;;;;;;2.80;98.70;;;;;;5087677;28;20063;-71
2022/12/19 06:51:24;;;;;;;;;;;2.80;98.70;;;;;;5087609;28;19957;-71
2022/12/19 06:53:50;;;;;;;;;;;2.80;98.60;;;;;;5087411;28;20023;-70
2022/12/19 06:56:16;;;;;;;;;;;2.80;98.60;;;;;;5087407;28;19958;-70
2022/12/19 06:58:42;;;;;;;;;;;2.90;98.60;;;;;;5083914;28;19916;-70
2022/12/19 07:01:14;;;;;;;;;;;2.90;98.70;;;;;;5085047;28;19912;-71
2022/12/19 07:03:40;;;;;;;;;;;2.90;98.70;;;;;;5067107;28;19966;-70
2022/12/19 07:06:06;;;;;;;;;;;2.90;98.60;;;;;;5067069;28;19920;-71
2022/12/19 07:08:32;;;;;;;;;;;2.90;98.70;;;;;;5048812;28;19912;-71
2022/12/19 07:10:58;;;;;;;;;;;2.90;98.70;;;;;;5066809;28;19912;-71
2022/12/19 07:13:23;;;;;;;;;;;2.90;98.70;;;;;;5067643;28;19916;-70
2022/12/19 07:15:50;;;;;;;;;;;2.90;98.70;;;;;;5088504;28;19923;-71
2022/12/19 07:18:15;;;;;;;;;;;3.00;98.80;;;;;;5086951;28;19912;-71
2022/12/19 07:20:41;;;;;;;;;;;3.00;98.70;;;;;;5086774;28;19919;-71
2022/12/19 07:23:08;;;;;;;;;;;3.00;98.70;;;;;;5068881;28;19919;-70
2022/12/19 07:25:34;;;;;;;;;;;3.00;98.70;;;;;;5086691;28;19916;-72
2022/12/19 07:27:59;;;;;;;;;;;3.00;98.80;;;;;;5079893;28;19916;-70
2022/12/19 07:30:25;;;;;;;;;;;3.00;98.80;;;;;;5086601;28;19912;-71
2022/12/19 07:32:50;;;;;;;;;;;3.00;98.80;;;;;;5087909;28;19916;-70
2022/12/19 07:35:16;;;;;;;;;;;3.00;98.80;;;;;;5087294;28;19912;-71
2022/12/19 07:37:41;;;;;;;;;;;3.10;98.80;;;;;;5086760;28;20345;-71
2022/12/19 07:40:07;;;;;;;;;;;3.10;98.80;;;;;;5086735;28;19919;-70
2022/12/19 07:42:33;;;;;;;;;;;3.10;98.80;;;;;;5087272;28;19913;-71
2022/12/19 07:44:59;;;;;;;;;;;3.10;98.70;;;;;;5091554;28;20353;-71
2022/12/19 07:47:26;;;;;;;;;;;3.10;98.80;;;;;;5103992;28;19916;-71
2022/12/19 07:49:52;;;;;;;;;;;3.10;98.80;;;;;;5108023;28;19947;-71
2022/12/19 07:52:17;;;;;;;;;;;3.20;98.90;;;;;;5111221;28;20539;-71
2022/12/19 07:54:43;;;;;;;;;;;3.20;98.90;;;;;;5111360;28;19912;-71
2022/12/19 07:57:08;;;;;;;;;;;3.20;99.10;;;;;;5103778;28;20376;-70
2022/12/19 07:59:34;;;;;;;;;;;3.30;99.10;;;;;;5088675;28;20011;-71
2022/12/19 08:01:59;;;;;;;;;;;3.30;99.10;;;;;;5074472;28;20365;-70
2022/12/19 08:04:25;;;;;;;;;;;3.30;99.20;;;;;;5070541;28;19990;-70
2022/12/19 08:06:50;;;;;;;;;;;3.30;99.10;;;;;;5070459;28;20361;-71
2022/12/19 08:09:16;;;;;;;;;;;3.30;99.10;;;;;;5070409;28;19927;-70
2022/12/19 08:11:41;;;;;;;;;;;3.40;99.10;;;;;;5070261;28;19913;-70
2022/12/19 08:14:07;;;;;;;;;;;3.40;99.00;;;;;;5080106;28;19947;-70
2022/12/19 08:16:32;;;;;;;;;;;3.40;99.10;;;;;;5090772;28;19912;-71
2022/12/19 08:18:58;;;;;;;;;;;3.40;99.10;;;;;;5090151;28;20003;-70
2022/12/19 08:21:23;;;;;;;;;;;3.40;99.10;;;;;;5071909;28;19918;-71
2022/12/19 08:23:49;;;;;;;;;;;3.40;99.20;;;;;;5090637;28;19912;-71
2022/12/19 08:26:16;;;;;;;;;;;3.40;99.20;;;;;;5090173;28;20050;-70
2022/12/19 08:28:42;;;;;;;;;;;3.50;99.20;;;;;;5081845;28;19941;-72
2022/12/19 08:31:12;;;;;;;;;;;3.50;99.20;;;;;;5099844;28;19916;-71
2022/12/19 08:33:38;;;;;;;;;;;3.50;99.20;;;;;;5110666;28;19912;-72
2022/12/19 08:36:07;;;;;;;;;;;3.50;99.20;;;;;;5110516;28;20492;-71
2022/12/19 08:38:33;;;;;;;;;;;3.50;99.30;;;;;;5110187;28;19933;-71
2022/12/19 08:40:58;;;;;;;;;;;3.60;99.30;;;;;;5110277;28;19923;-71
2022/12/19 08:43:25;;;;;;;;;;;3.60;99.30;;;;;;5106375;28;19912;-72
2022/12/19 08:45:50;;;;;;;;;;;3.60;99.30;;;;;;5089557;28;19912;-72
2022/12/19 08:48:16;;;;;;;;;;;3.60;99.30;;;;;;5106909;28;20554;-71
2022/12/19 08:50:55;;;;;;;;;;;3.60;99.30;;;;;;5109609;28;19919;-71
2022/12/19 08:53:21;;;;;;;;;;;3.60;99.30;;;;;;5110112;28;19908;-71
2022/12/19 08:55:49;;;;;;;;;;;3.70;99.40;;;;;;5091648;28;20720;-71
2022/12/19 08:58:14;;;;;;;;;;;3.70;99.30;;;;;;5093265;28;19912;-73
2022/12/19 09:00:40;;;;;;;;;;;3.70;99.40;;;;;;5089102;28;19915;-71
2022/12/19 09:03:05;;;;;;;;;;;3.70;99.50;;;;;;5089449;28;19912;-71
2022/12/19 09:05:31;;;;;;;;;;;3.70;99.50;;;;;;5089642;28;19923;-71
2022/12/19 09:07:56;;;;;;;;;;;3.80;99.50;;;;;;5089159;28;20038;-71
2022/12/19 09:10:22;;;;;;;;;;;3.70;99.40;;;;;;5071082;28;20369;-71
2022/12/19 09:12:47;;;;;;;;;;;3.80;99.50;;;;;;5089308;28;19916;-71
2022/12/19 09:15:13;;;;;;;;;;;3.80;99.50;;;;;;5089309;28;19912;-71
2022/12/19 09:17:38;;;;;;;;;;;3.80;99.50;;;;;;5089261;28;19965;-71
2022/12/19 09:20:04;;;;;;;;;;;3.80;99.40;;;;;;5090193;28;20541;-71
2022/12/19 09:22:30;;;;;;;;;;;3.80;99.40;;;;;;5088816;28;19912;-71
2022/12/19 09:24:55;;;;;;;;;;;3.90;99.40;;;;;;5089182;28;19919;-71
2022/12/19 09:27:21;;;;;;;;;;;3.90;99.50;;;;;;5070617;28;19969;-71
2022/12/19 09:29:46;;;;;;;;;;;3.90;99.50;;;;;;5088720;28;19939;-71
2022/12/19 09:32:12;;;;;;;;;;;3.90;99.50;;;;;;5088643;28;20020;-71
2022/12/19 09:34:37;;;;;;;;;;;3.90;99.40;;;;;;5083054;28;19912;-71
2022/12/19 09:37:03;;;;;;;;;;;3.90;99.30;;;;;;5109351;28;20002;-71
2022/12/19 09:39:28;;;;;;;;;;;4.00;99.40;;;;;;5102750;28;19912;-71
2022/12/19 09:42:02;;;;;;;;;;;4.00;99.30;;;;;;5088934;28;20023;-71
2022/12/19 09:44:51;;;;;;;;;;;4.00;99.30;;;;;;5089011;28;19918;-71
2022/12/19 09:47:17;;;;;;;;;;;4.00;99.30;;;;;;5088123;28;19966;-71
2022/12/19 09:49:44;;;;;;;;;;;4.10;99.30;;;;;;5088869;28;19919;-71
2022/12/19 09:52:15;;;;;;;;;;;4.10;99.30;;;;;;5089149;28;19915;-71
2022/12/19 09:54:43;;;;;;;;;;;4.10;99.20;;;;;;5070480;28;19912;-71
2022/12/19 09:57:29;;;;;;;;;;;4.10;99.10;;;;;;5081122;28;19966;-71
2022/12/19 10:00:04;;;;;;;;;;;4.10;99.10;;;;;;5068689;28;19916;-72
2022/12/19 10:02:32;;;;;;;;;;;4.20;99.20;;;;;;5088081;28;19961;-71
2022/12/19 10:05:02;;;;;;;;;;;4.20;99.20;;;;;;5070162;28;19912;-71
2022/12/19 10:07:29;;;;;;;;;;;4.20;99.10;;;;;;5089273;28;19971;-71
2022/12/19 10:09:54;;;;;;;;;;;4.20;99.00;;;;;;5088490;28;19912;-71
2022/12/19 10:12:20;;;;;;;;;;;4.30;99.00;;;;;;5088529;28;20261;-71
2022/12/19 10:15:04;;;;;;;;;;;4.30;99.00;;;;;;5088486;28;19916;-71
2022/12/19 10:17:32;;;;;;;;;;;4.30;99.00;;;;;;5088217;28;19920;-71
2022/12/19 10:19:57;;;;;;;;;;;4.40;98.90;;;;;;5087681;28;19912;-71
2022/12/19 10:22:26;;;;;;;;;;;4.40;98.90;;;;;;5089222;28;19920;-71
2022/12/19 10:25:12;;;;;;;;;;;4.50;98.90;;;;;;5088024;28;19981;-71
2022/12/19 10:27:46;;;;;;;;;;;4.50;99.00;;;;;;5068577;28;19916;-72
2022/12/19 10:30:15;;;;;;;;;;;4.50;98.90;;;;;;5084879;28;19912;-71
2022/12/19 10:33:00;;;;;;;;;;;4.50;98.90;;;;;;5083990;28;19950;-71
2022/12/19 10:35:31;;;;;;;;;;;4.60;98.90;;;;;;5077610;28;19961;-71
2022/12/19 10:38:17;;;;;;;;;;;4.60;98.90;;;;;;5087641;28;19919;-71
2022/12/19 10:40:47;;;;;;;;;;;4.60;98.80;;;;;;5086820;28;19908;-71
2022/12/19 10:43:16;;;;;;;;;;;4.60;99.10;;;;;;5087611;28;20276;-71
2022/12/19 10:45:47;;;;;;;;;;;4.70;99.20;;;;;;5069601;28;20432;-71
2022/12/19 10:48:20;;;;;;;;;;;4.70;99.10;;;;;;5097211;28;19916;-71
2022/12/19 10:50:46;;;;;;;;;;;4.70;99.00;;;;;;5107713;28;19943;-70
2022/12/19 10:53:13;;;;;;;;;;;4.80;99.00;;;;;;5107678;28;19943;-71
2022/12/19 10:55:48;;;;;;;;;;;4.80;99.00;;;;;;5107900;28;19959;-71
2022/12/19 10:58:18;;;;;;;;;;;4.80;98.90;;;;;;5072914;28;20436;-70
2022/12/19 11:00:55;;;;;;;;;;;4.90;99.00;;;;;;5087088;28;19973;-70
2022/12/19 11:03:20;;;;;;;;;;;4.90;98.90;;;;;;5088926;28;20533;-71
2022/12/19 11:05:50;;;;;;;;;;;4.90;99.00;;;;;;5107577;28;19922;-70
2022/12/19 11:08:18;;;;;;;;;;;4.90;98.80;;;;;;5107789;28;19908;-71
2022/12/19 11:11:08;;;;;;;;;;;5.00;98.90;;;;;;5107516;28;20011;-71
2022/12/19 11:13:34;;;;;;;;;;;5.00;99.00;;;;;;5102209;28;19924;-71
2022/12/19 11:16:00;;;;;;;;;;;5.00;99.00;;;;;;5087216;28;19912;-71
2022/12/19 11:18:38;;;;;;;;;;;5.10;99.00;;;;;;5086993;28;19912;-71
2022/12/19 11:21:14;;;;;;;;;;;5.10;99.00;;;;;;5101492;28;19915;-72
2022/12/19 11:23:51;;;;;;;;;;;5.10;99.00;;;;;;5088994;28;19912;-72
2022/12/19 11:26:28;;;;;;;;;;;5.10;99.00;;;;;;5106773;28;19938;-72
2022/12/19 11:28:57;;;;;;;;;;;5.10;99.00;;;;;;5085182;28;19912;-72
2022/12/19 11:31:24;;;;;;;;;;;5.20;99.10;;;;;;5086319;28;20031;-71
2022/12/19 11:33:54;;;;;;;;;;;5.20;98.90;;;;;;5068927;28;20003;-70
2022/12/19 11:36:42;;;;;;;;;;;5.20;98.90;;;;;;5088122;28;19916;-71
2022/12/19 11:39:14;;;;;;;;;;;5.20;99.00;;;;;;5086891;28;19947;-71
2022/12/19 11:41:41;;;;;;;;;;;5.20;99.00;;;;;;5086964;28;19916;-71
2022/12/19 11:44:26;;;;;;;;;;;5.20;99.00;;;;;;5087031;28;19965;-71
2022/12/19 11:46:55;;;;;;;;;;;5.20;99.00;;;;;;5086859;28;19923;-70
2022/12/19 11:49:27;;;;;;;;;;;5.20;99.00;;;;;;5086469;28;19969;-71
2022/12/19 11:52:09;;;;;;;;;;;5.30;99.00;;;;;;5068692;28;19961;-71
2022/12/19 11:54:43;;;;;;;;;;;5.30;99.00;;;;;;5103012;28;20428;-70
2022/12/19 11:57:10;;;;;;;;;;;5.30;98.90;;;;;;5100225;28;19990;-70
2022/12/19 11:59:37;;;;;;;;;;;5.30;98.90;;;;;;5087046;28;19937;-70
2022/12/19 12:02:26;;;;;;;;;;;5.30;98.90;;;;;;5086674;28;20002;-70
2022/12/19 12:05:15;;;;;;;;;;;5.30;98.90;;;;;;5068831;28;19912;-70
2022/12/19 12:07:40;;;;;;;;;;;5.30;98.90;;;;;;5068550;28;19968;-70
2022/12/19 12:10:16;;;;;;;;;;;5.40;99.00;;;;;;5096224;28;19920;-71
2022/12/19 12:13:00;;;;;;;;;;;5.40;99.00;;;;;;5106988;28;20416;-71
2022/12/19 12:15:31;;;;;;;;;;;5.40;99.00;;;;;;5087065;28;19922;-71
2022/12/19 12:17:57;;;;;;;;;;;5.40;99.00;;;;;;5086795;28;19951;-71
2022/12/19 12:20:31;;;;;;;;;;;5.40;99.00;;;;;;5086663;28;20362;-71
2022/12/19 12:23:12;;;;;;;;;;;5.40;99.00;;;;;;5086652;28;20390;-71
2022/12/19 12:25:49;;;;;;;;;;;5.40;99.00;;;;;;5086840;28;19916;-71
2022/12/19 12:28:14;;;;;;;;;;;5.40;99.10;;;;;;5081483;28;19995;-72
2022/12/19 12:30:54;;;;;;;;;;;5.50;99.10;;;;;;5086031;28;19999;-71
2022/12/19 12:33:39;;;;;;;;;;;5.50;99.10;;;;;;5068316;28;19947;-70
2022/12/19 12:36:10;;;;;;;;;;;5.50;99.10;;;;;;5086743;28;19965;-70
2022/12/19 12:38:38;;;;;;;;;;;5.50;99.10;;;;;;5090286;28;19908;-69
2022/12/19 12:42:02;;;;;;;;;;;5.50;99.20;;;;;;5090126;28;19949;-70
2022/12/19 12:44:09;;;;;;;;;;;5.50;99.20;;;;;;5094696;28;19916;-69
2022/12/19 12:46:39;;;;;;;;;;;5.50;99.30;;;;;;5090207;28;19916;-69
2022/12/19 12:49:13;;;;;;;;;;;5.60;99.30;;;;;;5071632;28;19920;-70
2022/12/19 12:51:38;;;;;;;;;;;5.60;99.30;;;;;;5090076;28;20635;-70
2022/12/19 12:54:06;;;;;;;;;;;5.60;99.20;;;;;;5089929;28;20015;-70
2022/12/19 12:56:32;;;;;;;;;;;5.60;99.20;;;;;;5071730;28;19919;-70
2022/12/19 12:59:03;;;;;;;;;;;5.60;99.20;;;;;;5092147;28;19922;-69
2022/12/19 13:01:29;;;;;;;;;;;5.60;99.10;;;;;;5081988;28;19952;-69
2022/12/19 13:04:06;;;;;;;;;;;5.60;99.00;;;;;;5083418;28;19947;-70
2022/12/19 13:06:57;;;;;;;;;;;5.70;98.90;;;;;;5089281;28;19977;-70
2022/12/19 13:09:27;;;;;;;;;;;5.70;99.00;;;;;;5089040;28;20018;-70
2022/12/19 13:14:45;;;;;;;;;;;5.80;99.00;;;;;;5089603;28;20442;-69
2022/12/19 13:17:16;;;;;;;;;;;5.80;99.00;;;;;;5104775;28;20026;-70
2022/12/19 13:20:14;;;;;;;;;;;5.80;99.00;;;;;;5089228;28;19916;-69
2022/12/19 13:22:40;;;;;;;;;;;5.80;99.10;;;;;;5088817;28;19919;-69
2022/12/19 13:25:24;;;;;;;;;;;5.80;99.00;;;;;;5079880;28;20296;-70
2022/12/19 13:27:54;;;;;;;;;;;5.80;99.00;;;;;;5087160;28;20455;-70
2022/12/19 13:30:20;;;;;;;;;;;5.80;98.90;;;;;;5086926;28;19912;-70
2022/12/19 13:32:45;;;;;;;;;;;5.90;98.90;;;;;;5095258;28;19972;-69
2022/12/19 13:35:11;;;;;;;;;;;5.90;98.90;;;;;;5089219;28;19912;-69
2022/12/19 13:37:36;;;;;;;;;;;5.90;99.00;;;;;;5088728;28;19912;-70
2022/12/19 13:40:08;;;;;;;;;;;5.90;99.30;;;;;;5079092;28;19912;-70
2022/12/19 13:45:29;;;;;;;;;;;5.90;99.10;;;;;;5084827;28;19927;-70
2022/12/19 13:47:56;;;;;;;;;;;5.90;99.00;;;;;;5087117;28;19916;-70
2022/12/19 13:50:34;;;;;;;;;;;5.90;99.00;;;;;;5070831;28;20003;-70
2022/12/19 13:53:00;;;;;;;;;;;5.90;99.00;;;;;;5088688;28;19920;-70
2022/12/19 13:55:28;;;;;;;;;;;5.90;99.10;;;;;;5088390;28;19908;-70
2022/12/19 13:57:54;;;;;;;;;;;6.00;99.10;;;;;;5087846;28;20341;-70
2022/12/19 14:00:34;;;;;;;;;;;6.00;99.10;;;;;;5086733;28;19926;-70
2022/12/19 14:03:00;;;;;;;;;;;5.90;99.20;;;;;;5086189;28;19918;-70
2022/12/19 14:05:27;;;;;;;;;;;6.00;99.30;;;;;;5088888;28;19912;-70
2022/12/19 14:07:53;;;;;;;;;;;5.90;99.10;;;;;;5087394;28;20006;-70
2022/12/19 14:10:23;;;;;;;;;;;6.00;99.10;;;;;;5069282;28;20003;-70
2022/12/19 14:15:35;;;;;;;;;;;5.90;99.10;;;;;;5087071;28;19919;-70
2022/12/19 14:18:16;;;;;;;;;;;5.90;99.10;;;;;;5087144;28;20733;-70
2022/12/19 14:20:41;;;;;;;;;;;5.90;99.00;;;;;;5085886;28;19920;-70
2022/12/19 14:23:06;;;;;;;;;;;5.90;99.10;;;;;;5088472;28;20378;-70
2022/12/19 14:25:41;;;;;;;;;;;5.90;99.10;;;;;;5087359;28;19926;-70
2022/12/19 14:28:11;;;;;;;;;;;5.90;99.10;;;;;;5080365;28;20312;-70
2022/12/19 14:30:39;;;;;;;;;;;5.90;99.10;;;;;;5086751;28;19912;-70
2022/12/19 14:33:10;;;;;;;;;;;5.90;99.00;;;;;;5086993;28;19912;-70
2022/12/19 14:35:42;;;;;;;;;;;5.90;99.00;;;;;;5087072;28;19913;-70
2022/12/19 14:38:13;;;;;;;;;;;5.90;99.00;;;;;;5087161;28;19923;-70
2022/12/19 14:40:39;;;;;;;;;;;5.90;99.00;;;;;;5066704;28;19933;-70
2022/12/19 14:46:10;;;;;;;;;;;5.80;99.00;;;;;;5086876;28;19923;-70
2022/12/19 14:48:47;;;;;;;;;;;5.80;99.00;;;;;;5086769;28;19931;-69
2022/12/19 14:51:14;;;;;;;;;;;5.80;99.10;;;;;;5086504;28;19915;-70
2022/12/19 14:53:59;;;;;;;;;;;5.80;99.10;;;;;;5086636;28;20459;-70
2022/12/19 14:56:26;;;;;;;;;;;5.80;99.10;;;;;;5086188;28;19985;-70